Laguna — WDF4470 — position and weather

sailwx.info

Track history (hours):
 
Tides and Currents Weather Stations Pressure Air Temp Water Temp Dewpoint Dewpoint Depression Visibility Wind Speed Wind Dir Waves Ship Positions

Laguna

Owner: GP RESOURCES INC., TERMINAL ISLAND, CA. More information available from US FCC via Universal Licensing System and Coast Guard Vessel Documentation Center.

Last reported at 2017-Sep-21 08:30 UTC. Time now 2017-Sep-21 08:59 UTC.
Position N 33°44' W 118°10'.

Length 15 m; draft 2.5 m.

MMSI: 367452280.

Date/timePositionNaut miles runAvg speedWind from/ knotsBaromVisibWave heightAir tempDewpointWater temp
2017-Sep-21 08:30N 33°44' W 118°10'0 0.2
2017-Sep-21 07:59N 33°44' W 118°10'0 0.1
2017-Sep-21 06:30N 33°44' W 118°10'0 0.1
2017-Sep-21 06:00N 33°44' W 118°10'0 0.0
2017-Sep-21 05:30N 33°44' W 118°10'0 0.1
2017-Sep-21 04:59N 33°44' W 118°10'0 0.4
2017-Sep-21 04:30N 33°44' W 118°10'3 5.9
2017-Sep-21 04:00N 33°43' W 118°14'2 4.3
2017-Sep-21 03:29N 33°44' W 118°16'0 0.1
2017-Sep-21 03:00N 33°44' W 118°16'0 0.1
2017-Sep-21 02:30N 33°44' W 118°16'0 0.6
2017-Sep-21 02:00N 33°44' W 118°16'0 0.0
2017-Sep-21 01:30N 33°44' W 118°16'0 0.0
2017-Sep-21 01:00N 33°44' W 118°16'0 0.0
2017-Sep-21 00:30N 33°44' W 118°16'0 0.0
2017-Sep-21 00:00N 33°44' W 118°16'0 0.0
2017-Sep-20 23:30N 33°44' W 118°16'0 0.0
2017-Sep-20 23:00N 33°44' W 118°16'0 0.0
2017-Sep-20 22:30N 33°44' W 118°16'0 0.0
2017-Sep-20 22:00N 33°44' W 118°16'0 0.0
2017-Sep-20 21:30N 33°44' W 118°16'0 0.5
2017-Sep-20 21:00N 33°44' W 118°16'0 0.0
2017-Sep-20 20:30N 33°44' W 118°16'0 0.0
2017-Sep-20 20:00N 33°44' W 118°16'0 0.0
2017-Sep-20 19:30N 33°44' W 118°16'0 0.0
2017-Sep-20 13:24N 33°44' W 118°16'0 0.0
2017-Sep-19 20:58N 33°44' W 118°16'0 0.0
2017-Sep-19 20:31N 33°44' W 118°16'0 0.0
2017-Sep-18 23:08N 33°44' W 118°16'0 0.0
2017-Sep-18 23:00N 33°44' W 118°16'0 0.0
2017-Sep-18 22:30N 33°44' W 118°16'0 0.0
2017-Sep-18 22:00N 33°44' W 118°16'0 0.0
2017-Sep-18 21:30N 33°44' W 118°16'0 0.0
2017-Sep-18 21:00N 33°44' W 118°16'0 0.0
2017-Sep-18 20:28N 33°44' W 118°16'  
2017-Sep-15 21:58N 33°44' W 118°16'0 0.0
2017-Sep-15 21:30N 33°44' W 118°16'0 0.0
2017-Sep-15 21:00N 33°44' W 118°16'0 0.0
2017-Sep-15 20:30N 33°44' W 118°16'0 0.0
2017-Sep-15 20:00N 33°44' W 118°16'0 0.0
2017-Sep-15 19:30N 33°44' W 118°16'0 0.7
2017-Sep-15 18:59N 33°44' W 118°16'0 0.2
2017-Sep-15 18:30N 33°44' W 118°16'0 0.0
2017-Sep-15 18:00N 33°44' W 118°16'0 0.0
2017-Sep-15 17:30N 33°44' W 118°16'0 0.0
2017-Sep-15 17:00N 33°44' W 118°16'0 0.0
2017-Sep-15 16:30N 33°44' W 118°16'0 0.0
2017-Sep-15 16:00N 33°44' W 118°16'0 0.0
2017-Sep-15 15:30N 33°44' W 118°16'0 0.0
2017-Sep-15 15:00N 33°44' W 118°16'0 0.0
2017-Sep-15 14:30N 33°44' W 118°16'0 0.0
2017-Sep-15 14:00N 33°44' W 118°16'1 1.1
2017-Sep-15 13:30N 33°43' W 118°16'1 0.0
2017-Sep-14 23:33N 33°44' W 118°16'0 0.0
2017-Sep-14 23:31N 33°44' W 118°16'2 3.4
2017-Sep-14 23:01N 33°43' W 118°15'3 5.8
2017-Sep-14 22:30N 33°45' W 118°12'0 0.5
2017-Sep-14 22:00N 33°45' W 118°12'0 0.0
2017-Sep-14 21:31N 33°45' W 118°12'0 0.0
2017-Sep-14 21:00N 33°45' W 118°12'0 0.0
2017-Sep-14 20:30N 33°45' W 118°12'0 0.2
2017-Sep-14 20:01N 33°45' W 118°12'3 5.3
2017-Sep-14 19:30N 33°43' W 118°14'2 4.7
2017-Sep-14 19:00N 33°44' W 118°17'1 1.8
2017-Sep-14 18:30N 33°45' W 118°16'0 0.0
2017-Sep-14 18:01N 33°45' W 118°16'0 0.0
2017-Sep-14 17:31N 33°45' W 118°16'0 0.0
2017-Sep-14 17:00N 33°45' W 118°16'0 0.0
2017-Sep-14 16:30N 33°45' W 118°16'0 0.0
2017-Sep-14 16:01N 33°45' W 118°16'0 0.0
2017-Sep-14 15:29N 33°45' W 118°16'0 0.0
2017-Sep-14 15:00N 33°45' W 118°16'0 0.0
2017-Sep-14 14:30N 33°45' W 118°16'1 1.5
2017-Sep-14 14:00N 33°44' W 118°17'0 0.7
2017-Sep-14 13:31N 33°44' W 118°16'0 0.0
2017-Sep-14 00:12N 33°44' W 118°16'0 1.3
2017-Sep-13 23:59N 33°44' W 118°16'2 4.8
2017-Sep-13 23:30N 33°43' W 118°13'1 2.2
2017-Sep-13 23:00N 33°44' W 118°12'0 0.0
2017-Sep-13 22:30N 33°44' W 118°12'0 0.0
2017-Sep-13 22:00N 33°44' W 118°12'0 0.0
2017-Sep-13 21:30N 33°44' W 118°12'0 0.0
2017-Sep-13 21:00N 33°44' W 118°12'0 0.0
2017-Sep-13 20:30N 33°44' W 118°12'0 0.0
2017-Sep-13 20:00N 33°44' W 118°12'3 5.4
2017-Sep-13 19:30N 33°43' W 118°15'2 3.3
2017-Sep-13 19:00N 33°44' W 118°16'0 0.0
2017-Sep-13 18:30N 33°44' W 118°16'0 0.0
2017-Sep-13 18:00N 33°44' W 118°16'0 0.0
2017-Sep-13 17:30N 33°44' W 118°16'0 0.0
2017-Sep-13 17:00N 33°44' W 118°16'0 0.0
2017-Sep-13 16:29N 33°44' W 118°16'0 0.0
2017-Sep-13 15:59N 33°44' W 118°16'0 0.0
2017-Sep-13 15:30N 33°44' W 118°16'0 0.0
2017-Sep-13 15:00N 33°44' W 118°16'0 0.0
2017-Sep-13 14:30N 33°44' W 118°16'0 0.0
2017-Sep-13 13:59N 33°44' W 118°16'1 1.6
2017-Sep-13 13:30N 33°43' W 118°16'1 0.1
2017-Sep-12 21:33N 33°44' W 118°16'0 0.1
2017-Sep-12 21:31N 33°44' W 118°16'1 1.2
2017-Sep-12 21:01N 33°45' W 118°17'0 0.7
2017-Sep-12 20:31N 33°45' W 118°16'0 0.1
2017-Sep-12 20:01N 33°45' W 118°16'0 0.0
2017-Sep-12 19:30N 33°45' W 118°16'0 0.1
2017-Sep-12 19:01N 33°45' W 118°16'0 0.5
2017-Sep-12 18:31N 33°45' W 118°16'3 5.0
2017-Sep-12 18:01N 33°43' W 118°14'3 5.8
2017-Sep-12 17:30N 33°44' W 118°11'1 2.2
2017-Sep-12 17:00N 33°44' W 118°09'0 0.0
2017-Sep-12 16:30N 33°44' W 118°09'0 0.0
2017-Sep-12 16:01N 33°44' W 118°09'0 0.0
2017-Sep-12 15:31N 33°44' W 118°09'0 0.0
2017-Sep-12 15:00N 33°44' W 118°09'0 0.0
2017-Sep-12 14:29N 33°44' W 118°09'2 4.1
2017-Sep-12 14:01N 33°44' W 118°12'3 6.4
2017-Sep-12 13:30N 33°43' W 118°16'  
Track history (hours):
 
Tides and Currents Weather Stations Pressure Air Temp Water Temp Dewpoint Dewpoint Depression Visibility Wind Speed Wind Dir Waves Ship Positions

Laguna

Owner: GP RESOURCES INC., TERMINAL ISLAND, CA. More information available from US FCC via Universal Licensing System and Coast Guard Vessel Documentation Center.

Last reported at 2017-Sep-21 08:30 UTC. Time now 2017-Sep-21 08:59 UTC.
Position N 33°44' W 118°10'.

Length 15 m; draft 2.5 m.

MMSI: 367452280.

Date/timePositionNaut miles runAvg speedWind from/ knotsBaromVisibWave heightAir tempDewpointWater temp
2017-Sep-21 08:30N 33°44' W 118°10'0 0.2
2017-Sep-21 07:59N 33°44' W 118°10'0 0.1
2017-Sep-21 06:30N 33°44' W 118°10'0 0.1
2017-Sep-21 06:00N 33°44' W 118°10'0 0.0
2017-Sep-21 05:30N 33°44' W 118°10'0 0.1
2017-Sep-21 04:59N 33°44' W 118°10'0 0.4
2017-Sep-21 04:30N 33°44' W 118°10'3 5.9
2017-Sep-21 04:00N 33°43' W 118°14'2 4.3
2017-Sep-21 03:29N 33°44' W 118°16'0 0.1
2017-Sep-21 03:00N 33°44' W 118°16'0 0.1
2017-Sep-21 02:30N 33°44' W 118°16'0 0.6
2017-Sep-21 02:00N 33°44' W 118°16'0 0.0
2017-Sep-21 01:30N 33°44' W 118°16'0 0.0
2017-Sep-21 01:00N 33°44' W 118°16'0 0.0
2017-Sep-21 00:30N 33°44' W 118°16'0 0.0
2017-Sep-21 00:00N 33°44' W 118°16'0 0.0
2017-Sep-20 23:30N 33°44' W 118°16'0 0.0
2017-Sep-20 23:00N 33°44' W 118°16'0 0.0
2017-Sep-20 22:30N 33°44' W 118°16'0 0.0
2017-Sep-20 22:00N 33°44' W 118°16'0 0.0
2017-Sep-20 21:30N 33°44' W 118°16'0 0.5
2017-Sep-20 21:00N 33°44' W 118°16'0 0.0
2017-Sep-20 20:30N 33°44' W 118°16'0 0.0
2017-Sep-20 20:00N 33°44' W 118°16'0 0.0
2017-Sep-20 19:30N 33°44' W 118°16'0 0.0
2017-Sep-20 13:24N 33°44' W 118°16'0 0.0
2017-Sep-19 20:58N 33°44' W 118°16'0 0.0
2017-Sep-19 20:31N 33°44' W 118°16'0 0.0
2017-Sep-18 23:08N 33°44' W 118°16'0 0.0
2017-Sep-18 23:00N 33°44' W 118°16'0 0.0
2017-Sep-18 22:30N 33°44' W 118°16'0 0.0
2017-Sep-18 22:00N 33°44' W 118°16'0 0.0
2017-Sep-18 21:30N 33°44' W 118°16'0 0.0
2017-Sep-18 21:00N 33°44' W 118°16'0 0.0
2017-Sep-18 20:28N 33°44' W 118°16'  
2017-Sep-15 21:58N 33°44' W 118°16'0 0.0
2017-Sep-15 21:30N 33°44' W 118°16'0 0.0
2017-Sep-15 21:00N 33°44' W 118°16'0 0.0
2017-Sep-15 20:30N 33°44' W 118°16'0 0.0
2017-Sep-15 20:00N 33°44' W 118°16'0 0.0
2017-Sep-15 19:30N 33°44' W 118°16'0 0.7
2017-Sep-15 18:59N 33°44' W 118°16'0 0.2
2017-Sep-15 18:30N 33°44' W 118°16'0 0.0
2017-Sep-15 18:00N 33°44' W 118°16'0 0.0
2017-Sep-15 17:30N 33°44' W 118°16'0 0.0
2017-Sep-15 17:00N 33°44' W 118°16'0 0.0
2017-Sep-15 16:30N 33°44' W 118°16'0 0.0
2017-Sep-15 16:00N 33°44' W 118°16'0 0.0
2017-Sep-15 15:30N 33°44' W 118°16'0 0.0
2017-Sep-15 15:00N 33°44' W 118°16'0 0.0
2017-Sep-15 14:30N 33°44' W 118°16'0 0.0
2017-Sep-15 14:00N 33°44' W 118°16'1 1.1
2017-Sep-15 13:30N 33°43' W 118°16'1 0.0
2017-Sep-14 23:33N 33°44' W 118°16'0 0.0
2017-Sep-14 23:31N 33°44' W 118°16'2 3.4
2017-Sep-14 23:01N 33°43' W 118°15'3 5.8
2017-Sep-14 22:30N 33°45' W 118°12'0 0.5
2017-Sep-14 22:00N 33°45' W 118°12'0 0.0
2017-Sep-14 21:31N 33°45' W 118°12'0 0.0
2017-Sep-14 21:00N 33°45' W 118°12'0 0.0
2017-Sep-14 20:30N 33°45' W 118°12'0 0.2
2017-Sep-14 20:01N 33°45' W 118°12'3 5.3
2017-Sep-14 19:30N 33°43' W 118°14'2 4.7
2017-Sep-14 19:00N 33°44' W 118°17'1 1.8
2017-Sep-14 18:30N 33°45' W 118°16'0 0.0
2017-Sep-14 18:01N 33°45' W 118°16'0 0.0
2017-Sep-14 17:31N 33°45' W 118°16'0 0.0
2017-Sep-14 17:00N 33°45' W 118°16'0 0.0
2017-Sep-14 16:30N 33°45' W 118°16'0 0.0
2017-Sep-14 16:01N 33°45' W 118°16'0 0.0
2017-Sep-14 15:29N 33°45' W 118°16'0 0.0
2017-Sep-14 15:00N 33°45' W 118°16'0 0.0
2017-Sep-14 14:30N 33°45' W 118°16'1 1.5
2017-Sep-14 14:00N 33°44' W 118°17'0 0.7
2017-Sep-14 13:31N 33°44' W 118°16'0 0.0
2017-Sep-14 00:12N 33°44' W 118°16'0 1.3
2017-Sep-13 23:59N 33°44' W 118°16'2 4.8
2017-Sep-13 23:30N 33°43' W 118°13'1 2.2
2017-Sep-13 23:00N 33°44' W 118°12'0 0.0
2017-Sep-13 22:30N 33°44' W 118°12'0 0.0
2017-Sep-13 22:00N 33°44' W 118°12'0 0.0
2017-Sep-13 21:30N 33°44' W 118°12'0 0.0
2017-Sep-13 21:00N 33°44' W 118°12'0 0.0
2017-Sep-13 20:30N 33°44' W 118°12'0 0.0
2017-Sep-13 20:00N 33°44' W 118°12'3 5.4
2017-Sep-13 19:30N 33°43' W 118°15'2 3.3
2017-Sep-13 19:00N 33°44' W 118°16'0 0.0
2017-Sep-13 18:30N 33°44' W 118°16'0 0.0
2017-Sep-13 18:00N 33°44' W 118°16'0 0.0
2017-Sep-13 17:30N 33°44' W 118°16'0 0.0
2017-Sep-13 17:00N 33°44' W 118°16'0 0.0
2017-Sep-13 16:29N 33°44' W 118°16'0 0.0
2017-Sep-13 15:59N 33°44' W 118°16'0 0.0
2017-Sep-13 15:30N 33°44' W 118°16'0 0.0
2017-Sep-13 15:00N 33°44' W 118°16'0 0.0
2017-Sep-13 14:30N 33°44' W 118°16'0 0.0
2017-Sep-13 13:59N 33°44' W 118°16'1 1.6
2017-Sep-13 13:30N 33°43' W 118°16'1 0.1
2017-Sep-12 21:33N 33°44' W 118°16'0 0.1
2017-Sep-12 21:31N 33°44' W 118°16'1 1.2
2017-Sep-12 21:01N 33°45' W 118°17'0 0.7
2017-Sep-12 20:31N 33°45' W 118°16'0 0.1
2017-Sep-12 20:01N 33°45' W 118°16'0 0.0
2017-Sep-12 19:30N 33°45' W 118°16'0 0.1
2017-Sep-12 19:01N 33°45' W 118°16'0 0.5
2017-Sep-12 18:31N 33°45' W 118°16'3 5.0
2017-Sep-12 18:01N 33°43' W 118°14'3 5.8
2017-Sep-12 17:30N 33°44' W 118°11'1 2.2
2017-Sep-12 17:00N 33°44' W 118°09'0 0.0
2017-Sep-12 16:30N 33°44' W 118°09'0 0.0
2017-Sep-12 16:01N 33°44' W 118°09'0 0.0
2017-Sep-12 15:31N 33°44' W 118°09'0 0.0
2017-Sep-12 15:00N 33°44' W 118°09'0 0.0
2017-Sep-12 14:29N 33°44' W 118°09'2 4.1
2017-Sep-12 14:01N 33°44' W 118°12'3 6.4
2017-Sep-12 13:30N 33°43' W 118°16'  

Dump ship's entire track history